Time;durP1;ratioP1;P1;durP2;ratioP2;P2;SDS_P1;SDS_P2;PMS_P1;PMS_P2;Temp;Humidity;BMP_temperature;BMP_pressure;BME280_temperature;BME280_humidity;BME280_pressure;Samples;Min_cycle;Max_cycle;Signal;HPM_P1;HPM_P2
2022/03/28 00:02:04;;;;;;;;;10.25;9.00;;;;;;;;5079106;28;45461;-73
2022/03/28 00:04:29;;;;;;;;;8.75;8.00;;;;;;;;5080109;28;46489;-74
2022/03/28 00:06:54;;;;;;;;;11.00;9.75;;;;;;;;5079883;27;45591;-74
2022/03/28 00:09:20;;;;;;;;;10.00;8.75;;;;;;;;5080693;28;45547;-74
2022/03/28 00:11:46;;;;;;;;;8.25;8.25;;;;;;;;5079120;27;45479;-73
2022/03/28 00:14:11;;;;;;;;;9.75;8.25;;;;;;;;5079971;28;46417;-73
2022/03/28 00:16:37;;;;;;;;;8.00;7.00;;;;;;;;5079787;28;45463;-74
2022/03/28 00:19:02;;;;;;;;;8.75;8.25;;;;;;;;5080011;28;45741;-74
2022/03/28 00:21:28;;;;;;;;;7.75;7.50;;;;;;;;5080034;27;45544;-74
2022/03/28 00:23:53;;;;;;;;;11.25;9.25;;;;;;;;5078544;28;47828;-74
2022/03/28 00:26:19;;;;;;;;;9.75;8.75;;;;;;;;5079732;28;45371;-73
2022/03/28 00:28:44;;;;;;;;;10.00;9.00;;;;;;;;5079530;27;45413;-74
2022/03/28 00:31:09;;;;;;;;;8.25;8.00;;;;;;;;5079144;28;45293;-74
2022/03/28 00:33:35;;;;;;;;;10.25;8.75;;;;;;;;5079593;28;45385;-73
2022/03/28 00:36:00;;;;;;;;;8.75;7.00;;;;;;;;5079698;28;45434;-74
2022/03/28 00:38:26;;;;;;;;;10.50;9.00;;;;;;;;5079990;28;45622;-74
2022/03/28 00:40:51;;;;;;;;;10.25;9.75;;;;;;;;5079985;27;45619;-74
2022/03/28 00:43:16;;;;;;;;;9.50;8.00;;;;;;;;5077731;27;45996;-74
2022/03/28 00:45:42;;;;;;;;;12.00;9.00;;;;;;;;5077793;28;45250;-74
2022/03/28 00:48:09;;;;;;;;;8.75;7.50;;;;;;;;5077933;28;45539;-74
2022/03/28 00:50:36;;;;;;;;;10.25;9.00;;;;;;;;5079298;27;45554;-74
2022/03/28 00:53:02;;;;;;;;;11.00;8.75;;;;;;;;5078905;27;46530;-74
2022/03/28 00:55:28;;;;;;;;;11.25;9.75;;;;;;;;5079118;28;45342;-74
2022/03/28 00:57:53;;;;;;;;;10.00;8.50;;;;;;;;5079235;27;45484;-74
2022/03/28 01:00:19;;;;;;;;;9.25;8.25;;;;;;;;5079083;28;45410;-74
2022/03/28 01:02:45;;;;;;;;;7.75;7.00;;;;;;;;5078713;28;46054;-74
2022/03/28 01:05:11;;;;;;;;;10.25;9.00;;;;;;;;5077439;28;45724;-74
2022/03/28 01:07:40;;;;;;;;;12.75;9.00;;;;;;;;5077524;27;45319;-74
2022/03/28 01:10:09;;;;;;;;;9.25;7.75;;;;;;;;5077784;28;45584;-73
2022/03/28 01:12:35;;;;;;;;;9.00;8.00;;;;;;;;5077376;27;47151;-73
2022/03/28 01:15:01;;;;;;;;;12.25;10.00;;;;;;;;5078425;28;45468;-74
2022/03/28 01:20:10;;;;;;;;;9.25;8.00;;;;;;;;5078958;28;45406;-74
2022/03/28 01:22:36;;;;;;;;;10.75;10.00;;;;;;;;5077047;28;45487;-74
2022/03/28 01:25:03;;;;;;;;;8.25;6.75;;;;;;;;5077454;28;45392;-73
2022/03/28 01:27:29;;;;;;;;;8.25;7.00;;;;;;;;5078458;27;45304;-73
2022/03/28 01:29:54;;;;;;;;;9.00;9.00;;;;;;;;5077788;28;45458;-74
2022/03/28 01:32:19;;;;;;;;;8.00;7.00;;;;;;;;5078511;28;46171;-74
2022/03/28 01:34:45;;;;;;;;;9.50;8.00;;;;;;;;5078543;28;45466;-73
2022/03/28 01:37:10;;;;;;;;;9.75;7.75;;;;;;;;5077184;28;45528;-74
2022/03/28 01:39:36;;;;;;;;;8.00;7.00;;;;;;;;5078879;28;45420;-74
2022/03/28 01:42:01;;;;;;;;;8.25;7.75;;;;;;;;5077057;28;47499;-74
2022/03/28 01:44:26;;;;;;;;;10.75;9.00;;;;;;;;5077271;28;45569;-73
2022/03/28 01:46:52;;;;;;;;;8.25;6.50;;;;;;;;5077305;28;45394;-73
2022/03/28 01:49:18;;;;;;;;;8.50;8.00;;;;;;;;5078621;28;45305;-74
2022/03/28 01:51:44;;;;;;;;;7.50;6.00;;;;;;;;5078360;28;46459;-73
2022/03/28 01:54:12;;;;;;;;;7.00;6.00;;;;;;;;5078430;28;46086;-74
2022/03/28 01:56:38;;;;;;;;;7.25;6.75;;;;;;;;5077122;28;45341;-74
2022/03/28 01:59:04;;;;;;;;;7.50;6.00;;;;;;;;5078430;28;45331;-74
2022/03/28 02:01:30;;;;;;;;;9.00;7.50;;;;;;;;5078043;28;45362;-74
2022/03/28 02:03:56;;;;;;;;;13.75;9.00;;;;;;;;5076794;28;45352;-74
2022/03/28 02:06:21;;;;;;;;;7.00;6.25;;;;;;;;5078153;28;45455;-73
2022/03/28 02:08:46;;;;;;;;;8.75;7.00;;;;;;;;5078072;27;45333;-74
2022/03/28 02:11:12;;;;;;;;;5.00;5.00;;;;;;;;5077974;28;46001;-73
2022/03/28 02:13:37;;;;;;;;;7.00;7.00;;;;;;;;5076636;28;45224;-74
2022/03/28 02:16:03;;;;;;;;;7.50;6.50;;;;;;;;5078100;28;45345;-74
2022/03/28 02:18:28;;;;;;;;;8.00;8.00;;;;;;;;5078491;28;45472;-73
2022/03/28 02:20:54;;;;;;;;;7.75;6.50;;;;;;;;5076306;28;45596;-74
2022/03/28 02:23:20;;;;;;;;;8.75;7.00;;;;;;;;5077640;28;45456;-74
2022/03/28 02:25:45;;;;;;;;;7.00;6.75;;;;;;;;5076484;27;45506;-74
2022/03/28 02:28:11;;;;;;;;;7.50;7.50;;;;;;;;5077617;27;45647;-73
2022/03/28 02:30:37;;;;;;;;;7.00;6.00;;;;;;;;5077570;28;45590;-74
2022/03/28 02:33:02;;;;;;;;;3.25;3.25;;;;;;;;5076305;28;45407;-74
2022/03/28 02:35:28;;;;;;;;;9.50;8.50;;;;;;;;5078213;28;45287;-73
2022/03/28 02:37:53;;;;;;;;;9.00;7.00;;;;;;;;5076211;28;45523;-73
2022/03/28 02:40:18;;;;;;;;;11.00;7.75;;;;;;;;5077175;27;46468;-74
2022/03/28 02:42:44;;;;;;;;;9.50;7.00;;;;;;;;5077332;28;45303;-73
2022/03/28 02:45:10;;;;;;;;;8.75;8.00;;;;;;;;5076592;28;45323;-71
2022/03/28 02:47:35;;;;;;;;;8.00;7.75;;;;;;;;5076776;27;45408;-73
2022/03/28 02:50:01;;;;;;;;;7.75;6.50;;;;;;;;5075892;28;46067;-73
2022/03/28 02:52:26;;;;;;;;;7.25;6.25;;;;;;;;5075567;28;45408;-73
2022/03/28 02:54:52;;;;;;;;;8.50;8.50;;;;;;;;5074989;27;45276;-74
2022/03/28 02:57:17;;;;;;;;;9.75;7.75;;;;;;;;5076216;27;45372;-74
2022/03/28 02:59:46;;;;;;;;;7.75;7.25;;;;;;;;5075008;28;48060;-74
2022/03/28 03:02:11;;;;;;;;;10.75;8.00;;;;;;;;5075563;28;45501;-74
2022/03/28 03:04:38;;;;;;;;;8.75;7.00;;;;;;;;5077248;27;45390;-73
2022/03/28 03:07:03;;;;;;;;;6.25;6.25;;;;;;;;5077641;27;45554;-74
2022/03/28 03:09:29;;;;;;;;;10.50;7.75;;;;;;;;5077276;27;45535;-73
2022/03/28 03:11:54;;;;;;;;;11.75;8.75;;;;;;;;5076911;27;45365;-73
2022/03/28 03:14:20;;;;;;;;;7.50;7.50;;;;;;;;5077050;27;45411;-74
2022/03/28 03:16:45;;;;;;;;;11.00;8.75;;;;;;;;5077181;27;45450;-74
2022/03/28 03:19:10;;;;;;;;;8.00;6.25;;;;;;;;5076919;27;45576;-74
2022/03/28 03:21:36;;;;;;;;;10.50;7.25;;;;;;;;5077096;27;45374;-73
2022/03/28 03:24:02;;;;;;;;;5.25;3.50;;;;;;;;5077385;28;45318;-73
2022/03/28 03:26:27;;;;;;;;;7.75;7.00;;;;;;;;5077275;27;45244;-74
2022/03/28 03:28:55;;;;;;;;;7.75;7.50;;;;;;;;5076456;27;46537;-74
2022/03/28 03:31:21;;;;;;;;;11.00;9.25;;;;;;;;5076701;27;45298;-74
2022/03/28 03:33:46;;;;;;;;;10.00;9.00;;;;;;;;5076457;27;45579;-73
2022/03/28 03:36:12;;;;;;;;;8.75;8.25;;;;;;;;5077203;27;45294;-73
2022/03/28 03:38:37;;;;;;;;;12.00;10.00;;;;;;;;5075356;28;45435;-73
2022/03/28 03:41:02;;;;;;;;;8.75;8.00;;;;;;;;5075828;27;45522;-74
2022/03/28 03:43:28;;;;;;;;;9.50;8.75;;;;;;;;5076896;27;45329;-73
2022/03/28 03:45:53;;;;;;;;;9.25;7.75;;;;;;;;5075904;27;45643;-74
2022/03/28 03:48:19;;;;;;;;;12.00;9.00;;;;;;;;5075152;28;46719;-73
2022/03/28 03:50:44;;;;;;;;;18.75;18.25;;;;;;;;5076546;27;45290;-74
2022/03/28 03:53:10;;;;;;;;;11.25;8.00;;;;;;;;5075441;27;45784;-74
2022/03/28 03:55:36;;;;;;;;;9.50;8.00;;;;;;;;5076925;27;45475;-74
2022/03/28 03:58:01;;;;;;;;;9.75;8.75;;;;;;;;5076708;28;45619;-74
2022/03/28 04:00:27;;;;;;;;;10.50;9.00;;;;;;;;5076638;27;45734;-74
2022/03/28 04:02:52;;;;;;;;;10.25;10.25;;;;;;;;5076578;27;45476;-74
2022/03/28 04:05:17;;;;;;;;;12.50;10.00;;;;;;;;5076833;27;45484;-74
2022/03/28 04:07:43;;;;;;;;;8.50;7.75;;;;;;;;5077319;27;47863;-74
2022/03/28 04:10:08;;;;;;;;;8.00;7.00;;;;;;;;5079930;27;45322;-74
2022/03/28 04:12:34;;;;;;;;;9.00;7.25;;;;;;;;5080346;27;45264;-74
2022/03/28 04:15:00;;;;;;;;;8.00;8.00;;;;;;;;5080186;27;45287;-73
2022/03/28 04:17:28;;;;;;;;;9.25;8.00;;;;;;;;5079701;27;45510;-74
2022/03/28 04:19:53;;;;;;;;;27.25;26.75;;;;;;;;5078272;27;45473;-74
2022/03/28 04:22:19;;;;;;;;;6.50;5.75;;;;;;;;5079617;27;45589;-73
2022/03/28 04:24:44;;;;;;;;;12.50;10.50;;;;;;;;5079877;27;45496;-74
2022/03/28 04:27:09;;;;;;;;;9.50;9.25;;;;;;;;5078075;27;46686;-74
2022/03/28 04:29:35;;;;;;;;;14.00;10.25;;;;;;;;5079720;27;45456;-73
2022/03/28 04:32:00;;;;;;;;;9.00;8.00;;;;;;;;5078369;27;45519;-74
2022/03/28 04:34:26;;;;;;;;;8.50;7.25;;;;;;;;5079485;27;46119;-74
2022/03/28 04:36:51;;;;;;;;;11.75;10.25;;;;;;;;5079163;27;46251;-74
2022/03/28 04:39:18;;;;;;;;;11.75;10.00;;;;;;;;5077316;27;45464;-74
2022/03/28 04:41:43;;;;;;;;;11.50;8.75;;;;;;;;5078023;27;45508;-74
2022/03/28 04:44:08;;;;;;;;;9.00;9.00;;;;;;;;5078192;28;45511;-74
2022/03/28 04:46:34;;;;;;;;;12.00;10.00;;;;;;;;5079541;27;45514;-74
2022/03/28 04:48:59;;;;;;;;;9.75;9.75;;;;;;;;5079473;27;45207;-74
2022/03/28 04:51:25;;;;;;;;;11.00;9.50;;;;;;;;5078932;27;45295;-73
2022/03/28 04:53:50;;;;;;;;;9.50;9.00;;;;;;;;5077348;27;45488;-73
2022/03/28 04:56:16;;;;;;;;;11.00;10.75;;;;;;;;5075798;27;47740;-72
2022/03/28 04:58:41;;;;;;;;;7.25;6.50;;;;;;;;5075883;28;45710;-73
2022/03/28 05:01:06;;;;;;;;;7.50;6.00;;;;;;;;5077695;27;45488;-73
2022/03/28 05:03:32;;;;;;;;;10.25;8.75;;;;;;;;5077341;27;45504;-73
2022/03/28 05:05:57;;;;;;;;;9.25;8.50;;;;;;;;5077343;28;46474;-73
2022/03/28 05:08:23;;;;;;;;;9.00;8.00;;;;;;;;5077346;28;45464;-73
2022/03/28 05:10:48;;;;;;;;;10.75;8.00;;;;;;;;5077277;27;45470;-73
2022/03/28 05:13:13;;;;;;;;;7.00;7.00;;;;;;;;5077490;28;45498;-73
2022/03/28 05:15:39;;;;;;;;;10.75;9.50;;;;;;;;5075641;28;47124;-73
2022/03/28 05:18:04;;;;;;;;;8.25;8.00;;;;;;;;5075609;27;45488;-73
2022/03/28 05:20:30;;;;;;;;;8.50;8.00;;;;;;;;5076978;27;45720;-73
2022/03/28 05:22:55;;;;;;;;;6.75;6.75;;;;;;;;5074353;28;45385;-73
2022/03/28 05:25:20;;;;;;;;;7.25;7.25;;;;;;;;5076958;27;46147;-72
2022/03/28 05:27:46;;;;;;;;;37.75;31.50;;;;;;;;5075185;28;45547;-73
2022/03/28 05:30:12;;;;;;;;;8.00;8.00;;;;;;;;5075533;27;45405;-73
2022/03/28 05:32:37;;;;;;;;;7.75;7.25;;;;;;;;5075936;27;45627;-72
2022/03/28 05:35:04;;;;;;;;;10.75;9.00;;;;;;;;5077000;28;46083;-72
2022/03/28 05:37:30;;;;;;;;;8.50;7.00;;;;;;;;5076651;27;45411;-73
2022/03/28 05:39:55;;;;;;;;;10.25;7.00;;;;;;;;5072215;28;45481;-73
2022/03/28 05:42:20;;;;;;;;;7.00;7.00;;;;;;;;5083698;27;45465;-72
2022/03/28 05:44:46;;;;;;;;;8.25;6.75;;;;;;;;5084612;27;45468;-72
2022/03/28 05:47:11;;;;;;;;;8.25;7.50;;;;;;;;5087585;27;45407;-73
2022/03/28 05:49:37;;;;;;;;;8.75;6.00;;;;;;;;5084900;27;45345;-73
2022/03/28 05:52:02;;;;;;;;;8.50;7.75;;;;;;;;5085690;27;45562;-72
2022/03/28 05:54:28;;;;;;;;;8.00;7.25;;;;;;;;5087366;27;46360;-73
2022/03/28 05:56:53;;;;;;;;;7.00;6.00;;;;;;;;5085437;27;45156;-72
2022/03/28 05:59:19;;;;;;;;;7.75;7.00;;;;;;;;5085825;27;45490;-72
2022/03/28 06:01:44;;;;;;;;;9.50;7.50;;;;;;;;5085644;27;45452;-72
2022/03/28 06:04:09;;;;;;;;;6.00;5.00;;;;;;;;5083801;27;45445;-72
2022/03/28 06:06:35;;;;;;;;;8.50;7.00;;;;;;;;5087864;27;45411;-72
2022/03/28 06:09:01;;;;;;;;;10.25;8.00;;;;;;;;5086176;27;45436;-72
2022/03/28 06:11:26;;;;;;;;;18.00;17.00;;;;;;;;5085734;27;45329;-72
2022/03/28 06:13:53;;;;;;;;;7.00;6.00;;;;;;;;5085854;27;46539;-72
2022/03/28 06:16:19;;;;;;;;;9.75;7.75;;;;;;;;5084250;27;45510;-73
2022/03/28 06:18:44;;;;;;;;;8.50;6.50;;;;;;;;5084627;27;45439;-72
2022/03/28 06:21:10;;;;;;;;;9.50;9.50;;;;;;;;5087181;27;45580;-73
2022/03/28 06:23:35;;;;;;;;;8.50;8.00;;;;;;;;5081176;27;46275;-73
2022/03/28 06:26:01;;;;;;;;;8.25;7.00;;;;;;;;5086331;27;45446;-72
2022/03/28 06:28:27;;;;;;;;;8.00;6.75;;;;;;;;5086410;27;45582;-73
2022/03/28 06:30:52;;;;;;;;;11.75;9.00;;;;;;;;5084391;27;45517;-73
2022/03/28 06:33:18;;;;;;;;;13.50;10.00;;;;;;;;5085284;27;46261;-73
2022/03/28 06:35:45;;;;;;;;;14.50;13.50;;;;;;;;5084557;27;45526;-73
2022/03/28 06:38:11;;;;;;;;;10.00;8.75;;;;;;;;5084834;27;45424;-73
2022/03/28 06:40:36;;;;;;;;;15.75;14.75;;;;;;;;5082046;27;45368;-73
2022/03/28 06:43:02;;;;;;;;;23.75;20.25;;;;;;;;5085599;27;45332;-73
2022/03/28 06:45:27;;;;;;;;;16.00;15.00;;;;;;;;5086379;27;45331;-73
2022/03/28 06:47:53;;;;;;;;;20.50;18.50;;;;;;;;5084839;27;45400;-72
2022/03/28 06:50:22;;;;;;;;;12.00;11.50;;;;;;;;5086529;27;45404;-73
2022/03/28 06:52:47;;;;;;;;;15.75;12.00;;;;;;;;5086152;27;45528;-73
2022/03/28 06:55:13;;;;;;;;;10.75;10.25;;;;;;;;5084542;27;45277;-73
2022/03/28 06:57:38;;;;;;;;;12.00;10.00;;;;;;;;5086580;27;45405;-73
2022/03/28 07:00:05;;;;;;;;;13.00;11.50;;;;;;;;5086037;27;45436;-73
2022/03/28 07:02:30;;;;;;;;;14.50;11.75;;;;;;;;5084281;27;46342;-73
2022/03/28 07:04:56;;;;;;;;;13.00;12.25;;;;;;;;5085235;27;45558;-73
2022/03/28 07:07:21;;;;;;;;;10.00;10.00;;;;;;;;5085541;27;45417;-73
2022/03/28 07:09:47;;;;;;;;;19.50;17.75;;;;;;;;5085380;27;45384;-74
2022/03/28 07:12:12;;;;;;;;;14.67;11.33;;;;;;;;5086440;27;45235;-73
2022/03/28 07:14:38;;;;;;;;;14.00;13.75;;;;;;;;5083420;27;45763;-74
2022/03/28 07:17:03;;;;;;;;;16.50;12.50;;;;;;;;5085971;27;45565;-73
2022/03/28 07:19:29;;;;;;;;;12.00;10.25;;;;;;;;5081809;27;45305;-75
2022/03/28 07:21:55;;;;;;;;;15.25;15.00;;;;;;;;5082997;27;46705;-74
2022/03/28 07:24:21;;;;;;;;;10.67;10.33;;;;;;;;5080995;27;45432;-74
2022/03/28 07:26:48;;;;;;;;;12.67;10.00;;;;;;;;5083481;27;46687;-75
2022/03/28 07:29:20;;;;;;;;;13.67;11.33;;;;;;;;5081149;27;45431;-73
2022/03/28 07:31:45;;;;;;;;;14.33;10.00;;;;;;;;5084060;27;46129;-73
2022/03/28 07:36:55;;;;;;;;;9.67;7.33;;;;;;;;5082742;27;45698;-73
2022/03/28 07:39:20;;;;;;;;;9.33;7.33;;;;;;;;5075820;28;45461;-73
2022/03/28 07:41:49;;;;;;;;;12.50;11.75;;;;;;;;5077535;28;45995;-74
2022/03/28 07:44:15;;;;;;;;;11.33;8.00;;;;;;;;5083578;27;45437;-72
2022/03/28 07:46:41;;;;;;;;;11.00;8.67;;;;;;;;5086932;27;45514;-72
2022/03/28 07:49:09;;;;;;;;;11.67;9.33;;;;;;;;5087879;27;45608;-73
2022/03/28 07:51:35;;;;;;;;;10.33;9.00;;;;;;;;5088930;27;45392;-72
2022/03/28 07:54:00;;;;;;;;;8.67;8.00;;;;;;;;5086647;27;45415;-73
2022/03/28 07:56:26;;;;;;;;;9.00;9.00;;;;;;;;5088012;27;45373;-73
2022/03/28 07:58:51;;;;;;;;;10.33;9.67;;;;;;;;5086779;27;45528;-73
2022/03/28 08:01:16;;;;;;;;;10.67;8.00;;;;;;;;5086052;27;45635;-72
2022/03/28 08:03:42;;;;;;;;;9.00;8.00;;;;;;;;5087893;27;45633;-72
2022/03/28 08:06:08;;;;;;;;;8.00;8.00;;;;;;;;5086757;27;45379;-73
2022/03/28 08:08:35;;;;;;;;;12.33;11.00;;;;;;;;5095415;27;45443;-72
2022/03/28 08:11:00;;;;;;;;;14.00;12.00;;;;;;;;5096975;27;45509;-74
2022/03/28 08:13:26;;;;;;;;;10.00;8.00;;;;;;;;5097556;27;45550;-73
2022/03/28 08:15:51;;;;;;;;;11.00;9.67;;;;;;;;5097690;27;45405;-73
2022/03/28 08:18:17;;;;;;;;;12.67;9.00;;;;;;;;5092275;27;45413;-73
2022/03/28 08:20:43;;;;;;;;;11.00;9.33;;;;;;;;5086775;27;46470;-73
2022/03/28 08:23:09;;;;;;;;;9.33;8.67;;;;;;;;5087145;27;45935;-73
2022/03/28 08:25:34;;;;;;;;;10.00;8.00;;;;;;;;5086854;27;45487;-74
2022/03/28 08:28:00;;;;;;;;;10.00;9.33;;;;;;;;5086658;27;45629;-73
2022/03/28 08:30:25;;;;;;;;;12.33;10.33;;;;;;;;5085545;27;46560;-74
2022/03/28 08:32:50;;;;;;;;;10.00;9.33;;;;;;;;5085661;27;45476;-73
2022/03/28 08:35:16;;;;;;;;;16.67;14.33;;;;;;;;5087928;27;45909;-73
2022/03/28 08:37:41;;;;;;;;;14.33;11.67;;;;;;;;5085947;27;45878;-73
2022/03/28 08:40:07;;;;;;;;;8.67;8.67;;;;;;;;5078928;27;46789;-73
2022/03/28 08:42:35;;;;;;;;;10.00;9.00;;;;;;;;5084728;27;45631;-73
2022/03/28 08:45:04;;;;;;;;;9.67;7.00;;;;;;;;5084142;27;45460;-74
2022/03/28 08:47:29;;;;;;;;;12.33;11.00;;;;;;;;5098372;27;45393;-73
2022/03/28 08:49:55;;;;;;;;;11.00;10.00;;;;;;;;5096662;27;45358;-73
2022/03/28 08:52:21;;;;;;;;;10.67;10.00;;;;;;;;5095885;27;45413;-72
2022/03/28 08:54:46;;;;;;;;;12.33;11.00;;;;;;;;5098743;27;45613;-72
2022/03/28 08:57:13;;;;;;;;;13.33;12.00;;;;;;;;5098587;27;45303;-73
2022/03/28 08:59:38;;;;;;;;;12.00;9.00;;;;;;;;5098716;27;45481;-71
2022/03/28 09:02:03;;;;;;;;;14.00;12.33;;;;;;;;5097871;27;45473;-73
2022/03/28 09:04:29;;;;;;;;;15.67;15.00;;;;;;;;5079356;27;45498;-73
2022/03/28 09:06:57;;;;;;;;;13.33;12.67;;;;;;;;5076314;28;45539;-73
2022/03/28 09:09:31;;;;;;;;;12.00;10.00;;;;;;;;5073099;28;45609;-73
2022/03/28 09:12:08;;;;;;;;;9.67;7.00;;;;;;;;5075883;27;45456;-75
2022/03/28 09:14:34;;;;;;;;;8.67;7.67;;;;;;;;5076146;27;45511;-74
2022/03/28 09:17:00;;;;;;;;;15.00;13.00;;;;;;;;5074466;28;45575;-73
2022/03/28 09:19:25;;;;;;;;;18.00;16.00;;;;;;;;5074404;28;45609;-75
2022/03/28 09:21:50;;;;;;;;;9.33;7.67;;;;;;;;5075455;27;45453;-76
2022/03/28 09:24:16;;;;;;;;;14.67;13.67;;;;;;;;5073960;28;45412;-75
2022/03/28 09:26:42;;;;;;;;;11.67;10.00;;;;;;;;5073044;28;45495;-74
2022/03/28 09:29:08;;;;;;;;;12.33;10.67;;;;;;;;5074569;27;46150;-74
2022/03/28 09:31:38;;;;;;;;;11.33;10.00;;;;;;;;5075601;28;45388;-76
2022/03/28 09:34:14;;;;;;;;;14.33;11.67;;;;;;;;5073754;28;45484;-76
2022/03/28 09:36:39;;;;;;;;;11.67;10.33;;;;;;;;5075586;28;45471;-74
2022/03/28 09:39:07;;;;;;;;;18.33;15.33;;;;;;;;5075497;27;46412;-73
2022/03/28 09:41:32;;;;;;;;;11.67;10.00;;;;;;;;5076049;28;45386;-77
2022/03/28 09:43:57;;;;;;;;;13.00;9.67;;;;;;;;5075151;28;45532;-71
2022/03/28 09:46:27;;;;;;;;;9.67;9.00;;;;;;;;5074966;28;45557;-74
2022/03/28 09:48:53;;;;;;;;;13.33;11.33;;;;;;;;5074513;28;46247;-74
2022/03/28 09:51:21;;;;;;;;;10.00;9.00;;;;;;;;5074544;28;45436;-75
2022/03/28 09:53:47;;;;;;;;;10.67;10.00;;;;;;;;5076465;28;45393;-74
2022/03/28 09:56:13;;;;;;;;;11.67;10.67;;;;;;;;5075682;28;45430;-75
2022/03/28 09:58:46;;;;;;;;;13.67;11.00;;;;;;;;5075411;28;45429;-73
2022/03/28 10:01:16;;;;;;;;;15.00;12.00;;;;;;;;5075276;28;45425;-73
2022/03/28 10:03:43;;;;;;;;;19.00;13.00;;;;;;;;5072833;28;45552;-73
2022/03/28 10:06:09;;;;;;;;;11.67;11.00;;;;;;;;5075708;28;45371;-74
2022/03/28 10:08:35;;;;;;;;;17.00;14.33;;;;;;;;5075001;28;46034;-73
2022/03/28 10:11:01;;;;;;;;;16.00;11.67;;;;;;;;5073585;28;45444;-73
2022/03/28 10:13:26;;;;;;;;;12.67;11.00;;;;;;;;5074682;28;45296;-73
2022/03/28 10:15:52;;;;;;;;;11.33;10.00;;;;;;;;5076376;27;45733;-73
2022/03/28 10:18:17;;;;;;;;;16.33;13.67;;;;;;;;5076109;27;45452;-72
2022/03/28 10:20:44;;;;;;;;;14.67;12.33;;;;;;;;5076695;27;45434;-73
2022/03/28 10:23:12;;;;;;;;;10.33;10.33;;;;;;;;5076919;27;45663;-73
2022/03/28 10:25:38;;;;;;;;;17.00;11.00;;;;;;;;5075472;28;45459;-76
2022/03/28 10:28:04;;;;;;;;;13.33;11.00;;;;;;;;5075389;27;46407;-75
2022/03/28 10:30:30;;;;;;;;;13.67;11.00;;;;;;;;5074473;28;45391;-75
2022/03/28 10:33:11;;;;;;;;;14.33;11.00;;;;;;;;5075786;27;45505;-73
2022/03/28 10:35:38;;;;;;;;;14.00;8.33;;;;;;;;5077261;27;45449;-73
2022/03/28 10:38:14;;;;;;;;;16.67;13.00;;;;;;;;5074016;28;45947;-73
2022/03/28 10:40:52;;;;;;;;;13.33;12.67;;;;;;;;5073348;28;45427;-73
2022/03/28 10:43:17;;;;;;;;;15.33;13.00;;;;;;;;5076100;27;45692;-74
2022/03/28 10:45:43;;;;;;;;;13.67;11.00;;;;;;;;5075728;28;45373;-74
2022/03/28 10:48:11;;;;;;;;;13.33;13.00;;;;;;;;5076581;28;45484;-74
2022/03/28 10:50:50;;;;;;;;;13.00;10.00;;;;;;;;5076861;28;45384;-73
2022/03/28 10:53:20;;;;;;;;;5.00;3.00;;;;;;;;5075896;28;46343;-74
2022/03/28 10:55:49;;;;;;;;;13.33;12.00;;;;;;;;5073998;28;45452;-75
2022/03/28 10:58:16;;;;;;;;;11.67;9.00;;;;;;;;5073976;28;46444;-74
2022/03/28 11:01:00;;;;;;;;;15.33;12.00;;;;;;;;5074046;28;45475;-74
2022/03/28 11:03:35;;;;;;;;;15.00;12.33;;;;;;;;5056017;28;45374;-74
2022/03/28 11:06:01;;;;;;;;;18.67;13.00;;;;;;;;5054977;28;45401;-73
2022/03/28 11:08:33;;;;;;;;;14.00;12.33;;;;;;;;5056346;28;45610;-73
2022/03/28 11:11:17;;;;;;;;;14.67;11.00;;;;;;;;5056840;28;45389;-74
2022/03/28 11:13:43;;;;;;;;;14.00;11.33;;;;;;;;5056959;28;45294;-74
2022/03/28 11:16:19;;;;;;;;;16.00;13.33;;;;;;;;5058739;28;45313;-74
2022/03/28 11:18:55;;;;;;;;;14.33;12.33;;;;;;;;5058847;28;46281;-74
2022/03/28 11:21:24;;;;;;;;;15.00;13.00;;;;;;;;5060132;28;45374;-74
2022/03/28 11:24:06;;;;;;;;;13.00;12.00;;;;;;;;5060565;28;45575;-73
2022/03/28 11:26:32;;;;;;;;;27.33;25.00;;;;;;;;5059339;28;45307;-74
2022/03/28 11:28:57;;;;;;;;;18.00;15.33;;;;;;;;5059662;28;45287;-73
2022/03/28 11:31:23;;;;;;;;;14.33;11.33;;;;;;;;5060228;28;45234;-74
2022/03/28 11:33:48;;;;;;;;;14.33;12.00;;;;;;;;5060403;28;45305;-74
2022/03/28 11:36:15;;;;;;;;;15.00;14.00;;;;;;;;5060476;28;45422;-74
2022/03/28 11:38:41;;;;;;;;;25.67;21.00;;;;;;;;5058863;28;45486;-74
2022/03/28 11:41:08;;;;;;;;;14.67;11.67;;;;;;;;5060006;28;45450;-73
2022/03/28 11:43:40;;;;;;;;;18.33;14.00;;;;;;;;5059535;28;45436;-73
2022/03/28 11:46:11;;;;;;;;;17.00;12.00;;;;;;;;5059600;28;45362;-74
2022/03/28 11:48:37;;;;;;;;;17.67;14.00;;;;;;;;5058231;28;45840;-74
2022/03/28 11:51:16;;;;;;;;;17.33;14.00;;;;;;;;5058634;28;45287;-74
2022/03/28 11:53:42;;;;;;;;;11.33;11.00;;;;;;;;5060247;28;45535;-73
2022/03/28 11:56:07;;;;;;;;;15.00;12.67;;;;;;;;5060010;28;45445;-74
2022/03/28 11:58:33;;;;;;;;;12.67;11.33;;;;;;;;5059787;28;46534;-73
2022/03/28 12:01:10;;;;;;;;;13.00;11.00;;;;;;;;5058218;28;45447;-74
2022/03/28 12:03:37;;;;;;;;;13.67;11.67;;;;;;;;5059792;28;45519;-73
2022/03/28 12:06:03;;;;;;;;;13.33;11.67;;;;;;;;5059768;28;45595;-73
2022/03/28 12:08:28;;;;;;;;;15.00;12.00;;;;;;;;5059459;28;46115;-74
2022/03/28 12:10:54;;;;;;;;;18.67;12.33;;;;;;;;5059472;28;45418;-74
2022/03/28 12:13:21;;;;;;;;;14.33;10.00;;;;;;;;5058238;28;45326;-74
2022/03/28 12:15:47;;;;;;;;;11.67;10.00;;;;;;;;5058437;28;45378;-74
2022/03/28 12:18:17;;;;;;;;;13.00;10.00;;;;;;;;5059593;28;46209;-74
2022/03/28 12:20:47;;;;;;;;;12.00;10.67;;;;;;;;5058397;28;45492;-74
2022/03/28 12:23:13;;;;;;;;;14.00;11.00;;;;;;;;5059582;28;45488;-74
2022/03/28 12:25:43;;;;;;;;;11.67;10.33;;;;;;;;5059382;28;45475;-74
2022/03/28 12:28:10;;;;;;;;;19.00;12.67;;;;;;;;5057669;28;45434;-74
2022/03/28 12:30:44;;;;;;;;;14.67;12.00;;;;;;;;5057944;28;45813;-74
2022/03/28 12:33:14;;;;;;;;;16.33;12.00;;;;;;;;5057946;28;45259;-74
2022/03/28 12:35:43;;;;;;;;;13.33;11.00;;;;;;;;5059317;28;45489;-74
2022/03/28 12:38:13;;;;;;;;;13.33;10.67;;;;;;;;5058817;28;45588;-73
2022/03/28 12:40:40;;;;;;;;;17.67;15.33;;;;;;;;5057474;28;45459;-74
2022/03/28 12:43:05;;;;;;;;;28.50;25.00;;;;;;;;5059011;28;45356;-74
2022/03/28 12:45:31;;;;;;;;;27.50;25.00;;;;;;;;5059189;28;45463;-74
2022/03/28 12:48:04;;;;;;;;;30.50;28.00;;;;;;;;5057621;28;45419;-73
2022/03/28 12:50:30;;;;;;;;;29.25;27.00;;;;;;;;5058837;28;45386;-73
2022/03/28 12:53:13;;;;;;;;;28.50;27.25;;;;;;;;5058820;28;45491;-74
2022/03/28 12:55:39;;;;;;;;;34.00;30.75;;;;;;;;5057827;28;45523;-73
2022/03/28 12:58:04;;;;;;;;;43.00;37.00;;;;;;;;5058498;28;46417;-74
2022/03/28 13:00:30;;;;;;;;;47.25;38.75;;;;;;;;5057569;28;45314;-73
2022/03/28 13:03:01;;;;;;;;;47.50;39.75;;;;;;;;5058598;28;45410;-73
2022/03/28 13:05:26;;;;;;;;;44.00;37.50;;;;;;;;5058680;28;45576;-73
2022/03/28 13:07:52;;;;;;;;;47.25;37.75;;;;;;;;5058459;28;45603;-73
2022/03/28 13:10:24;;;;;;;;;43.00;35.25;;;;;;;;5058677;28;45418;-73
2022/03/28 13:12:54;;;;;;;;;38.25;33.00;;;;;;;;5058815;28;45421;-73
2022/03/28 13:15:21;;;;;;;;;36.75;30.50;;;;;;;;5058761;28;45397;-74
2022/03/28 13:17:48;;;;;;;;;17.33;16.00;;;;;;;;5058427;28;46211;-74
2022/03/28 13:20:21;;;;;;;;;20.00;16.33;;;;;;;;5058486;28;45192;-74
2022/03/28 13:22:47;;;;;;;;;10.00;10.00;;;;;;;;5057246;28;45264;-74
2022/03/28 13:25:17;;;;;;;;;17.67;14.33;;;;;;;;5058406;28;45510;-73
2022/03/28 13:28:01;;;;;;;;;13.67;10.67;;;;;;;;5058229;28;45378;-73
2022/03/28 13:30:28;;;;;;;;;13.00;11.00;;;;;;;;5057908;28;45310;-74
2022/03/28 13:32:54;;;;;;;;;9.00;6.00;;;;;;;;5058372;28;45395;-74
2022/03/28 13:35:19;;;;;;;;;14.33;11.33;;;;;;;;5057048;28;45347;-74
2022/03/28 13:37:57;;;;;;;;;20.67;12.00;;;;;;;;5058322;28;45901;-73
2022/03/28 13:40:22;;;;;;;;;15.33;13.33;;;;;;;;5057595;28;45321;-73
2022/03/28 13:42:48;;;;;;;;;10.00;9.00;;;;;;;;5058441;28;45580;-74
2022/03/28 13:45:14;;;;;;;;;16.33;10.00;;;;;;;;5056915;28;45296;-73
2022/03/28 13:47:39;;;;;;;;;13.33;12.33;;;;;;;;5057609;28;45541;-73
2022/03/28 13:50:05;;;;;;;;;18.00;13.00;;;;;;;;5056292;28;45547;-73
2022/03/28 13:52:31;;;;;;;;;17.67;13.33;;;;;;;;5058057;28;45367;-74
2022/03/28 13:54:56;;;;;;;;;15.33;13.00;;;;;;;;5058108;28;45281;-74
2022/03/28 13:57:22;;;;;;;;;14.00;12.00;;;;;;;;5057697;28;46026;-74
2022/03/28 13:59:47;;;;;;;;;17.00;14.67;;;;;;;;5056787;28;45592;-74
2022/03/28 14:02:14;;;;;;;;;16.67;13.00;;;;;;;;5057839;28;45322;-73
2022/03/28 14:04:39;;;;;;;;;16.00;13.00;;;;;;;;5058002;28;45412;-73
2022/03/28 14:07:05;;;;;;;;;17.67;15.33;;;;;;;;5056142;28;45761;-74
2022/03/28 14:09:30;;;;;;;;;24.33;19.00;;;;;;;;5056369;28;45599;-74
2022/03/28 14:11:56;;;;;;;;;18.33;14.33;;;;;;;;5056655;28;45736;-74
2022/03/28 14:14:23;;;;;;;;;15.67;13.00;;;;;;;;5056330;28;45406;-74
2022/03/28 14:16:49;;;;;;;;;15.67;11.00;;;;;;;;5057652;28;45597;-74
2022/03/28 14:19:15;;;;;;;;;14.67;11.33;;;;;;;;5055846;28;45247;-74
2022/03/28 14:21:41;;;;;;;;;15.00;10.00;;;;;;;;5057591;28;45528;-74
2022/03/28 14:24:06;;;;;;;;;15.67;13.00;;;;;;;;5055983;28;45617;-74
2022/03/28 14:26:32;;;;;;;;;20.00;11.00;;;;;;;;5055799;28;46377;-73
2022/03/28 14:28:58;;;;;;;;;17.67;14.00;;;;;;;;5057219;28;45449;-73
2022/03/28 14:31:23;;;;;;;;;17.00;13.00;;;;;;;;5055792;28;45324;-74